Terminal Aerodrome Forecast
Issued by NWS Twin Cities, MN

Home | Current Version | Previous Version | Text Only | Print | Product List | Glossary Off
Versions: 1 2 3 4 5 6 7 8 9 10 11 12 13 14 15 16 17 18 19

000
FTUS43 KMPX 250500
TAFSTC
TAF
KSTC 250527Z 2506/2606 15005KT P6SM SCT080
     FM250900 15007KT 6SM -SHRA VCTS SCT030 OVC040CB
      TEMPO 2509/2511 3SM -TSRA BR OVC030CB
     FM251200 16007KT P6SM SCT020 BKN035
     FM251900 25006KT P6SM BKN040
     FM260100 32003KT P6SM SKC=

USA.gov is the U.S. government's official web portal to all federal, state and local government web resources and services.